Time;durP1;ratioP1;P1;durP2;ratioP2;P2;SDS_P1;SDS_P2;PMS_P1;PMS_P2;Temp;Humidity;BMP_temperature;BMP_pressure;BME280_temperature;BME280_humidity;BME280_pressure;Samples;Min_cycle;Max_cycle;Signal;HPM_P1;HPM_P2
2023/04/06 00:03:05;;;;;;;10.60;7.97;;;2.30;76.80;;;;;;4837742;28;20372;-81
2023/04/06 00:07:25;;;;;;;11.57;7.60;;;2.30;76.60;;;;;;4726939;28;20286;-83
2023/04/06 00:28:25;;;;;;;15.70;7.97;;;2.20;77.00;;;;;;4741237;29;20300;-82
2023/04/06 00:32:45;;;;;;;8.47;6.17;;;2.20;77.30;;;;;;4686415;29;20545;-81
2023/04/06 00:58:40;;;;;;;9.13;6.90;;;2.20;76.80;;;;;;4700355;29;20197;-81
2023/04/06 01:28:40;;;;;;;10.37;6.83;;;2.10;77.40;;;;;;4808984;28;20671;-82
2023/04/06 01:54:27;;;;;;;8.57;6.00;;;2.10;77.80;;;;;;4771337;28;20866;-82
2023/04/06 02:14:27;;;;;;;10.40;6.30;;;2.20;77.80;;;;;;4568459;29;20611;-81
2023/04/06 02:40:02;;;;;;;8.17;5.70;;;2.10;78.70;;;;;;4614470;29;20221;-82
2023/04/06 03:10:35;;;;;;;12.77;6.90;;;1.70;80.50;;;;;;4730195;28;20297;-83
2023/04/06 03:14:55;;;;;;;11.37;6.80;;;1.70;80.70;;;;;;4589311;29;20537;-79
2023/04/06 03:35:12;;;;;;;15.07;7.33;;;1.90;81.20;;;;;;4611617;29;20692;-78
2023/04/06 04:01:14;;;;;;;12.07;7.47;;;1.50;82.30;;;;;;4716863;28;20309;-81
2023/04/06 04:31:01;;;;;;;13.27;8.40;;;1.70;82.10;;;;;;4643303;29;20736;-80
2023/04/06 04:56:29;;;;;;;11.70;7.47;;;2.00;81.80;;;;;;4620349;29;20554;-82
2023/04/06 05:17:17;;;;;;;12.40;7.37;;;2.20;81.50;;;;;;4725761;29;20492;-82
2023/04/06 05:47:35;;;;;;;8.50;5.80;;;2.70;80.60;;;;;;4808540;28;20897;-84
2023/04/06 06:07:55;;;;;;;9.33;5.17;;;3.00;79.90;;;;;;4715083;29;20826;-84
2023/04/06 06:58:11;;;;;;;6.63;4.30;;;3.50;79.40;;;;;;4634939;29;20544;-87
2023/04/06 07:23:50;;;;;;;8.30;3.83;;;3.70;79.00;;;;;;4841571;28;20304;-86
2023/04/06 08:03:58;;;;;;;6.03;4.20;;;4.00;80.10;;;;;;4700572;29;20260;-84
2023/04/06 08:24:34;;;;;;;6.03;4.17;;;3.80;82.00;;;;;;4617603;29;20784;-82
2023/04/06 08:49:39;;;;;;;5.10;3.30;;;3.90;83.20;;;;;;4458167;30;20680;-78
2023/04/06 09:10:16;;;;;;;6.70;3.70;;;4.00;83.70;;;;;;4653283;29;20613;-81
2023/04/06 09:35:52;;;;;;;8.27;4.77;;;3.60;87.10;;;;;;4591869;29;20279;-83
2023/04/06 10:01:02;;;;;;;8.07;4.40;;;3.60;93.00;;;;;;4698750;29;20647;-85
2023/04/06 10:36:10;;;;;;;7.10;4.93;;;3.30;99.90;;;;;;4813296;29;20265;-83
2023/04/06 10:56:59;;;;;;;6.10;5.50;;;3.20;99.90;;;;;;4865047;28;20909;-84
2023/04/06 11:21:47;;;;;;;9.30;5.73;;;3.30;99.20;;;;;;4877584;28;21020;-84
2023/04/06 11:37:35;;;;;;;10.30;6.10;;;3.50;98.90;;;;;;4855628;29;20244;-83
2023/04/06 12:03:03;;;;;;;8.23;6.20;;;3.70;96.00;;;;;;4843193;29;20230;-84
2023/04/06 12:38:00;;;;;;;7.60;6.80;;;3.90;94.70;;;;;;4762753;29;20314;-83
2023/04/06 12:58:36;;;;;;;8.20;6.60;;;4.00;95.30;;;;;;4803734;29;20223;-83
2023/04/06 13:23:54;;;;;;;7.60;5.73;;;3.80;98.10;;;;;;4666531;29;20891;-81
2023/04/06 13:59:35;;;;;;;6.80;5.50;;;3.70;99.90;;;;;;4889024;28;20728;-82
2023/04/06 14:29:45;;;;;;;7.07;5.63;;;3.70;99.90;;;;;;4732250;29;20669;-82
2023/04/06 15:00:09;;;;;;;7.13;6.37;;;3.80;99.90;;;;;;4669254;29;20245;-83
2023/04/06 15:25:17;;;;;;;8.27;6.53;;;3.90;99.90;;;;;;4719945;29;20541;-82
2023/04/06 15:56:23;;;;;;;11.17;7.37;;;3.80;99.90;;;;;;4955074;28;20788;-84
2023/04/06 16:21:36;;;;;;;9.80;7.00;;;3.60;99.90;;;;;;4693629;29;20494;-84
2023/04/06 16:57:02;;;;;;;11.23;7.77;;;3.50;99.90;;;;;;4617473;30;20211;-83
2023/04/06 17:26:57;;;;;;;14.07;8.50;;;3.40;99.90;;;;;;4832749;29;20819;-83
2023/04/06 17:42:53;;;;;;;12.93;8.83;;;3.50;99.90;;;;;;4836208;29;20704;-82
2023/04/06 18:48:28;;;;;;;14.70;10.60;;;3.70;99.90;;;;;;4858155;29;20204;-82
2023/04/06 20:25:04;;;;;;;14.23;10.20;;;3.70;99.90;;;;;;4797806;29;20273;-82
2023/04/06 20:45:21;;;;;;;14.60;10.57;;;3.80;99.90;;;;;;4696496;30;20218;-83
2023/04/06 21:15:39;;;;;;;22.97;15.30;;;3.90;99.90;;;;;;4833406;28;20216;-83
2023/04/06 21:46:03;;;;;;;29.97;18.20;;;4.10;99.90;;;;;;4915446;28;20198;-83
2023/04/06 22:15:57;;;;;;;30.60;18.27;;;4.20;99.90;;;;;;4808929;29;20647;-84
2023/04/06 22:36:54;;;;;;;28.80;19.13;;;4.20;99.90;;;;;;4734930;29;20480;-83
2023/04/06 23:01:36;;;;;;;29.10;18.00;;;4.40;99.90;;;;;;4782825;29;21126;-83
2023/04/06 23:27:24;;;;;;;28.60;17.57;;;4.30;99.90;;;;;;4786988;29;20466;-83
2023/04/06 23:52:55;;;;;;;36.13;20.67;;;4.70;99.90;;;;;;4930618;28;20238;-82
